HVN123 VRMM-VVTS
Flight info
| Callsign | HVN123 |
|---|---|
| Flight time | N/A |
| Altitude | 39000 |
| Route | HOKE1A HOKEY M512 TELIG T310 MTL Y510 IDUDO L645 PUT PQU W8 RG W16 TRN BITI2G |
| Aircraft | A320/M-V/N |
Departure
| Time | 2026-05-05 05:42 |
|---|---|
| Airport | Velana International Airport (VRMM) |
Arrival
| Time | N/A |
|---|---|
| Airport | Tan Son Nhat International Airport (VVTS) |
| Time | Latitude | Longitude | Altitude | Speed | Heading |
|---|---|---|---|---|---|
| 2026-05-05 05:30 | 4.18710 | 73.52792 | 14 ft | 0 kts | 269° |
| 2026-05-05 05:36 | 4.18710 | 73.52801 | 14 ft | 2 kts | 269° |
| 2026-05-05 05:36 | 4.18711 | 73.52814 | 14 ft | 0 kts | 269° |
| 2026-05-05 05:37 | 4.18712 | 73.52826 | 14 ft | 2 kts | 250° |
| 2026-05-05 05:37 | 4.18719 | 73.52839 | 14 ft | 2 kts | 229° |
| 2026-05-05 05:37 | 4.18731 | 73.52849 | 14 ft | 2 kts | 206° |
| 2026-05-05 05:37 | 4.18745 | 73.52853 | 14 ft | 1 kts | 184° |
| 2026-05-05 05:38 | 4.18751 | 73.52853 | 14 ft | 1 kts | 176° |
| 2026-05-05 05:38 | 4.18754 | 73.52853 | 14 ft | 0 kts | 178° |
| 2026-05-05 05:39 | 4.18752 | 73.52853 | 14 ft | 1 kts | 178° |
| 2026-05-05 05:39 | 4.18736 | 73.52854 | 14 ft | 3 kts | 176° |
| 2026-05-05 05:39 | 4.18699 | 73.52866 | 14 ft | 7 kts | 137° |
| 2026-05-05 05:39 | 4.18664 | 73.52915 | 14 ft | 10 kts | 153° |
| 2026-05-05 05:40 | 4.18577 | 73.52932 | 12 ft | 13 kts | 159° |
| 2026-05-05 05:40 | 4.18567 | 73.52994 | 12 ft | 10 kts | 76° |
| 2026-05-05 05:40 | 4.18553 | 73.53061 | 12 ft | 11 kts | 66° |
| 2026-05-05 05:40 | 4.18611 | 73.53105 | 12 ft | 11 kts | 9° |
| 2026-05-05 05:41 | 4.18732 | 73.53111 | 13 ft | 30 kts | 359° |
| 2026-05-05 05:41 | 4.19151 | 73.53101 | 14 ft | 94 kts | 360° |
| 2026-05-05 05:41 | 4.20035 | 73.53102 | 8 ft | 156 kts | 0° |
| 2026-05-05 05:41 | 4.21300 | 73.53102 | 115 ft | 196 kts | 359° |
| 2026-05-05 05:42 | 4.22648 | 73.53124 | 821 ft | 192 kts | 360° |
| 2026-05-05 05:42 | 4.23984 | 73.53173 | 1425 ft | 197 kts | 0° |
| 2026-05-05 05:42 | 4.25376 | 73.53191 | 2001 ft | 203 kts | 357° |
| 2026-05-05 05:42 | 4.26850 | 73.53161 | 2323 ft | 220 kts | 357° |
| 2026-05-05 05:43 | 4.28450 | 73.53128 | 2664 ft | 237 kts | 357° |
| 2026-05-05 05:43 | 4.30160 | 73.53106 | 3007 ft | 255 kts | 358° |
| 2026-05-05 05:43 | 4.31977 | 73.53200 | 3434 ft | 270 kts | 14° |
| 2026-05-05 05:43 | 4.33579 | 73.54165 | 4122 ft | 275 kts | 50° |
| 2026-05-05 05:44 | 4.34462 | 73.55858 | 4895 ft | 276 kts | 70° |
| 2026-05-05 05:44 | 4.35032 | 73.57703 | 5526 ft | 281 kts | 73° |
| 2026-05-05 05:44 | 4.35554 | 73.59606 | 6159 ft | 286 kts | 74° |
| 2026-05-05 05:44 | 4.36062 | 73.61510 | 6847 ft | 288 kts | 75° |
| 2026-05-05 05:45 | 4.36585 | 73.63469 | 7547 ft | 291 kts | 75° |
| 2026-05-05 05:45 | 4.37106 | 73.65416 | 8207 ft | 293 kts | 75° |
| 2026-05-05 05:45 | 4.37635 | 73.67390 | 8866 ft | 295 kts | 75° |
| 2026-05-05 05:45 | 4.38167 | 73.69368 | 9524 ft | 297 kts | 75° |
| 2026-05-05 05:46 | 4.38700 | 73.71354 | 10154 ft | 299 kts | 75° |
| 2026-05-05 05:46 | 4.39255 | 73.73421 | 10539 ft | 312 kts | 75° |
| 2026-05-05 05:46 | 4.39827 | 73.75545 | 10804 ft | 327 kts | 75° |
| 2026-05-05 05:46 | 4.40436 | 73.77806 | 11064 ft | 342 kts | 75° |
| 2026-05-05 05:47 | 4.41065 | 73.80135 | 11309 ft | 356 kts | 75° |
| 2026-05-05 05:47 | 4.41722 | 73.82571 | 11546 ft | 370 kts | 75° |
| 2026-05-05 05:47 | 4.42412 | 73.85131 | 11774 ft | 383 kts | 74° |
| 2026-05-05 05:47 | 4.43116 | 73.87746 | 11986 ft | 396 kts | 74° |
| 2026-05-05 05:48 | 4.43841 | 73.90432 | 12183 ft | 407 kts | 74° |
| 2026-05-05 05:48 | 4.44595 | 73.93228 | 12377 ft | 419 kts | 74° |
| 2026-05-05 05:48 | 4.45356 | 73.96057 | 12647 ft | 426 kts | 75° |
| 2026-05-05 05:48 | 4.46128 | 73.98927 | 13065 ft | 429 kts | 75° |
| 2026-05-05 05:49 | 4.46907 | 74.01827 | 13504 ft | 432 kts | 75° |
| 2026-05-05 05:49 | 4.47685 | 74.04722 | 13880 ft | 435 kts | 75° |
| 2026-05-05 05:49 | 4.48480 | 74.07684 | 14234 ft | 439 kts | 75° |
| 2026-05-05 05:49 | 4.49264 | 74.10609 | 14606 ft | 442 kts | 75° |
| 2026-05-05 05:50 | 4.50066 | 74.13605 | 14977 ft | 445 kts | 75° |
| 2026-05-05 05:50 | 4.50870 | 74.16608 | 15329 ft | 448 kts | 75° |
| 2026-05-05 05:50 | 4.51675 | 74.19621 | 15669 ft | 450 kts | 75° |
| 2026-05-05 05:50 | 4.52489 | 74.22671 | 16015 ft | 453 kts | 75° |
| 2026-05-05 05:51 | 4.53303 | 74.25710 | 16326 ft | 456 kts | 75° |
| 2026-05-05 05:51 | 4.54143 | 74.28805 | 16634 ft | 458 kts | 74° |
| 2026-05-05 05:51 | 4.55069 | 74.31842 | 16944 ft | 461 kts | 73° |
| 2026-05-05 05:51 | 4.56033 | 74.34930 | 17233 ft | 464 kts | 73° |
| 2026-05-05 05:52 | 4.56994 | 74.37998 | 17511 ft | 466 kts | 73° |
| 2026-05-05 05:52 | 4.57956 | 74.41084 | 17798 ft | 468 kts | 73° |
| 2026-05-05 05:52 | 4.58932 | 74.44216 | 18094 ft | 470 kts | 73° |
| 2026-05-05 05:52 | 4.59910 | 74.47362 | 18387 ft | 471 kts | 73° |
| 2026-05-05 05:53 | 4.60881 | 74.50491 | 18650 ft | 474 kts | 73° |
| 2026-05-05 05:53 | 4.61851 | 74.53617 | 18921 ft | 475 kts | 73° |
| 2026-05-05 05:53 | 4.62845 | 74.56820 | 19198 ft | 476 kts | 73° |
| 2026-05-05 05:53 | 4.63825 | 74.59983 | 19452 ft | 478 kts | 73° |
| 2026-05-05 05:54 | 4.64803 | 74.63136 | 19689 ft | 480 kts | 73° |
| 2026-05-05 05:54 | 4.65793 | 74.66335 | 19924 ft | 482 kts | 73° |
| 2026-05-05 05:54 | 4.66792 | 74.69576 | 20150 ft | 484 kts | 73° |
| 2026-05-05 05:54 | 4.67779 | 74.72778 | 20369 ft | 485 kts | 73° |
| 2026-05-05 05:55 | 4.68776 | 74.76009 | 20577 ft | 487 kts | 73° |
| 2026-05-05 05:55 | 4.69784 | 74.79269 | 20793 ft | 489 kts | 73° |
| 2026-05-05 05:55 | 4.70796 | 74.82539 | 21023 ft | 490 kts | 73° |
| 2026-05-05 05:55 | 4.71800 | 74.85786 | 21217 ft | 491 kts | 73° |
| 2026-05-05 05:56 | 4.72806 | 74.89040 | 21412 ft | 492 kts | 73° |
| 2026-05-05 05:56 | 4.73817 | 74.92313 | 21606 ft | 493 kts | 73° |
| 2026-05-05 05:56 | 4.74837 | 74.95612 | 21795 ft | 494 kts | 73° |
| 2026-05-05 05:56 | 4.75859 | 74.98924 | 21976 ft | 495 kts | 73° |
| 2026-05-05 05:57 | 4.76870 | 75.02197 | 22137 ft | 496 kts | 73° |
| 2026-05-05 05:57 | 4.77883 | 75.05481 | 22289 ft | 498 kts | 73° |
| 2026-05-05 05:57 | 4.78909 | 75.08811 | 22448 ft | 498 kts | 73° |
| 2026-05-05 05:57 | 4.79932 | 75.12125 | 22621 ft | 499 kts | 73° |
| 2026-05-05 05:58 | 4.80960 | 75.15438 | 22761 ft | 500 kts | 73° |
| 2026-05-05 05:58 | 4.82005 | 75.18796 | 22895 ft | 501 kts | 73° |
| 2026-05-05 05:58 | 4.83034 | 75.22107 | 23034 ft | 502 kts | 73° |
| 2026-05-05 05:58 | 4.84067 | 75.25433 | 23191 ft | 502 kts | 73° |
| 2026-05-05 05:59 | 4.85095 | 75.28751 | 23964 ft | 487 kts | 73° |
| 2026-05-05 05:59 | 4.86064 | 75.31877 | 25407 ft | 457 kts | 73° |
| 2026-05-05 05:59 | 4.86961 | 75.34782 | 26850 ft | 427 kts | 73° |
| 2026-05-05 05:59 | 4.87797 | 75.37495 | 28296 ft | 396 kts | 73° |
| 2026-05-05 06:00 | 4.88570 | 75.40010 | 29360 ft | 376 kts | 73° |
| 2026-05-05 06:00 | 4.89324 | 75.42464 | 30092 ft | 364 kts | 74° |
| 2026-05-05 06:00 | 4.90073 | 75.44899 | 30342 ft | 366 kts | 74° |
| 2026-05-05 06:00 | 4.90815 | 75.47312 | 30594 ft | 367 kts | 73° |
| 2026-05-05 06:01 | 4.91576 | 75.49783 | 30867 ft | 368 kts | 73° |
| 2026-05-05 06:01 | 4.92326 | 75.52215 | 31089 ft | 369 kts | 73° |
| 2026-05-05 06:01 | 4.93086 | 75.54679 | 31275 ft | 373 kts | 73° |
| 2026-05-05 06:01 | 4.93859 | 75.57185 | 31379 ft | 378 kts | 73° |
| 2026-05-05 06:02 | 4.94640 | 75.59714 | 31490 ft | 382 kts | 73° |
| 2026-05-05 06:02 | 4.95428 | 75.62266 | 31595 ft | 387 kts | 73° |
| 2026-05-05 06:02 | 4.96231 | 75.64864 | 31700 ft | 392 kts | 73° |
| 2026-05-05 06:02 | 4.97038 | 75.67484 | 31807 ft | 397 kts | 73° |
| 2026-05-05 06:03 | 4.97852 | 75.70134 | 31911 ft | 401 kts | 73° |
| 2026-05-05 06:03 | 4.98686 | 75.72852 | 32012 ft | 406 kts | 73° |
| 2026-05-05 06:03 | 4.99515 | 75.75551 | 32118 ft | 411 kts | 73° |
| 2026-05-05 06:03 | 5.00362 | 75.78308 | 32229 ft | 416 kts | 73° |
| 2026-05-05 06:04 | 5.02075 | 75.83881 | 32405 ft | 424 kts | 73° |
| 2026-05-05 06:04 | 5.03822 | 75.89568 | 32582 ft | 431 kts | 73° |
| 2026-05-05 06:05 | 5.05594 | 75.95336 | 32761 ft | 438 kts | 73° |
| 2026-05-05 06:05 | 5.07397 | 76.01211 | 32928 ft | 444 kts | 73° |
| 2026-05-05 06:06 | 5.09231 | 76.07187 | 33063 ft | 450 kts | 73° |
| 2026-05-05 06:06 | 5.11090 | 76.13206 | 33181 ft | 455 kts | 73° |
| 2026-05-05 06:07 | 5.12989 | 76.19276 | 33303 ft | 460 kts | 73° |
| 2026-05-05 06:07 | 5.14898 | 76.25433 | 33421 ft | 464 kts | 73° |
| 2026-05-05 06:08 | 5.16802 | 76.31607 | 33541 ft | 467 kts | 73° |
| 2026-05-05 06:08 | 5.18722 | 76.37852 | 33660 ft | 469 kts | 73° |
| 2026-05-05 06:09 | 5.20643 | 76.44109 | 33781 ft | 471 kts | 73° |
| 2026-05-05 06:09 | 5.22564 | 76.50375 | 33900 ft | 473 kts | 73° |
| 2026-05-05 06:10 | 5.24501 | 76.56685 | 34007 ft | 474 kts | 73° |
| 2026-05-05 06:10 | 5.26443 | 76.63017 | 34056 ft | 476 kts | 73° |
| 2026-05-05 06:11 | 5.28383 | 76.69362 | 34190 ft | 476 kts | 73° |
| 2026-05-05 06:11 | 5.30312 | 76.75690 | 34360 ft | 475 kts | 73° |
| 2026-05-05 06:12 | 5.32243 | 76.82011 | 34493 ft | 475 kts | 73° |
| 2026-05-05 06:12 | 5.34178 | 76.88337 | 34703 ft | 473 kts | 73° |
| 2026-05-05 06:13 | 5.36114 | 76.94644 | 34844 ft | 472 kts | 73° |
| 2026-05-05 06:13 | 5.38029 | 77.00932 | 34952 ft | 472 kts | 73° |
| 2026-05-05 06:14 | 5.39950 | 77.07210 | 34932 ft | 474 kts | 73° |
| 2026-05-05 06:14 | 5.41883 | 77.13535 | 34954 ft | 475 kts | 73° |
| 2026-05-05 06:15 | 5.42852 | 77.16704 | 35234 ft | 470 kts | 73° |
| 2026-05-05 06:15 | 5.43803 | 77.19817 | 35709 ft | 461 kts | 73° |
| 2026-05-05 06:15 | 5.44728 | 77.22849 | 35997 ft | 457 kts | 73° |
| 2026-05-05 06:15 | 5.45663 | 77.25912 | 36113 ft | 456 kts | 73° |
| 2026-05-05 06:16 | 5.46575 | 77.28905 | 36739 ft | 443 kts | 73° |
| 2026-05-05 06:16 | 5.47445 | 77.31760 | 37915 ft | 420 kts | 73° |
| 2026-05-05 06:16 | 5.48278 | 77.34497 | 38619 ft | 407 kts | 73° |
| 2026-05-05 06:16 | 5.49098 | 77.37193 | 38911 ft | 403 kts | 73° |